Terminal Aerodrome Forecast
Issued by NWS

Home | Current Version | Previous Version | Text Only | Print | Product List | Glossary Off
Versions: 1 2 3 4 5 6 7 8 9 10 11 12 13 14 15 16 17 18 19 20 21 22

158
FTUS41 KCLE 300233 AAA
TAFFDY
TAF AMD
KFDY 300233Z 3003/3024 08005KT 5SM BR SCT005 BKN120
      TEMPO 3004/3008 5SM -SHRA BKN015
     FM300800 06012KT 4SM BR OVC005
     FM301600 09010KT P6SM -SHRA BKN015 BKN025
     FM302000 06012KT P6SM BKN025=

USA.gov is the U.S. government's official web portal to all federal, state and local government web resources and services.